This is the latest recevied weather packets stored in our database for station/object AB2HM. If no packets are shown the sender has not sent any weather packets the latest 10 day(s).
| Time | Temp. | Humidity | Pressure | Rain* | Wind** | Luminosity | Snow |
|---|---|---|---|---|---|---|---|
| 1777681707 | 15.56° C | 52% | 1012.7 hPa | 0 mm | - | - | - |
| 1777679901 | 16.67° C | 47% | 1012.6 hPa | 0 mm | - | - | - |
| 1777678096 | 17.22° C | 42% | 1012.4 hPa | 0 mm | - | - | - |
| 1777676296 | 17.78° C | 40% | 1012.1 hPa | 0 mm | - | - | - |
| 1777674497 | 18.33° C | 40% | 1012.1 hPa | 0 mm | - | - | - |
| 1777672696 | 18.33° C | 38% | 1012.2 hPa | 0 mm | - | - | - |
| 1777670896 | 18.89° C | 37% | 1012.2 hPa | 0 mm | - | - | - |
| 1777669094 | 19.44° C | 38% | 1012.3 hPa | 0 mm | - | - | - |
| 1777667286 | 19.44° C | 36% | 1012.3 hPa | 0 mm | - | - | - |
| 1777665481 | 20° C | 34% | 1012.5 hPa | 0 mm | - | - | - |
| 1777663672 | 18.89° C | 35% | 1012.6 hPa | 0 mm | - | - | - |
| 1777661859 | 19.44° C | 35% | 1013.1 hPa | 0 mm | - | - | - |
| 1777660045 | 19.44° C | 36% | 1013.3 hPa | 0 mm | - | - | - |
| 1777658241 | 18.89° C | 38% | 1013.3 hPa | 0 mm | - | - | - |
| 1777656423 | 18.33° C | 39% | 1013.6 hPa | 0 mm | - | - | - |
| 1777654615 | 17.78° C | 39% | 1013.8 hPa | 0 mm | - | - | - |
| 1777652796 | 17.22° C | 43% | 1014.2 hPa | 0 mm | - | - | - |
| 1777650978 | 16.11° C | 45% | 1014.7 hPa | 0 mm | - | - | - |
| 1777649176 | 15.56° C | 46% | 1015.1 hPa | 0 mm | - | - | - |
| 1777647369 | 15° C | 49% | 1015.4 hPa | 0 mm | - | - | - |
| 1777645569 | 14.44° C | 52% | 1015.4 hPa | 0 mm | - | - | - |
| 1777643763 | 13.89° C | 57% | 1015.4 hPa | 0 mm | - | - | - |
| 1777641954 | 13.33° C | 63% | 1015.5 hPa | 0 mm | - | - | - |
| 1777640148 | 12.22° C | 69% | 1015.5 hPa | 0 mm | - | - | - |
| 1777638338 | 11.11° C | 73% | 1015.5 hPa | 0 mm | - | - | - |
* Rain latest hour (hover to see other rain measurements)
** Current wind speed in m/s (hover to see current wind gust speed)